Terminal Aerodrome Forecast
Issued by NWS

Home | Current Version | Previous Version | Text Only | Print | Product List | Glossary Off
Versions: 1 2 3 4 5 6 7 8 9 10 11 12 13 14 15

000
FTUS43 KMPX 271500 AAA
TAFRWF
TAF AMD
KRWF 271534Z 2716/2812 32017G30KT P6SM BKN025 OVC035
     FM272000 33013G19KT P6SM VCSH SCT020 BKN035 OVC050
     FM280000 34011KT P6SM BKN050
     FM280300 31005KT P6SM SCT250=

USA.gov is the U.S. government's official web portal to all federal, state and local government web resources and services.